createdAt,value
2023-02-18T00:02:33.583Z,1.90
2023-02-18T00:06:35.058Z,1.80
2023-02-18T00:10:33.280Z,1.60
2023-02-18T00:14:33.505Z,1.40
2023-02-18T00:18:33.660Z,1.60
2023-02-18T00:22:33.858Z,1.30
2023-02-18T00:26:34.536Z,1.10
2023-02-18T00:30:33.670Z,1.00
2023-02-18T00:34:33.407Z,0.80
2023-02-18T00:42:33.448Z,0.80
2023-02-18T00:46:33.706Z,0.80
2023-02-18T00:54:33.682Z,0.70
2023-02-18T00:58:34.225Z,0.70
2023-02-18T01:06:33.887Z,0.70
2023-02-18T01:10:34.322Z,0.60
2023-02-18T01:14:33.739Z,0.90
2023-02-18T01:18:34.038Z,0.80
2023-02-18T01:22:33.704Z,0.70
2023-02-18T01:26:33.519Z,0.50
2023-02-18T01:30:34.495Z,0.50
2023-02-18T01:34:33.564Z,0.50
2023-02-18T01:38:34.009Z,0.50
2023-02-18T01:42:33.770Z,0.60
2023-02-18T01:46:33.647Z,0.70
2023-02-18T01:50:38.917Z,0.60
2023-02-18T01:54:38.739Z,0.60
2023-02-18T01:58:34.093Z,0.80
2023-02-18T02:02:38.347Z,0.70
2023-02-18T02:06:33.832Z,1.00
2023-02-18T02:10:41.770Z,0.90
2023-02-18T02:14:49.412Z,1.30
2023-02-18T02:18:42.800Z,1.20
2023-02-18T02:22:53.491Z,1.30
2023-02-18T02:26:53.530Z,1.40
2023-02-18T02:30:46.397Z,1.50
2023-02-18T02:34:42.567Z,1.10
2023-02-18T02:38:39.355Z,1.30
2023-02-18T02:50:39.830Z,1.20
2023-02-18T02:58:33.866Z,1.10
2023-02-18T03:02:45.554Z,1.50
2023-02-18T03:14:43.783Z,1.20
2023-02-18T03:18:37.863Z,1.40
2023-02-18T03:30:39.691Z,1.30
2023-02-18T03:34:38.992Z,1.50
2023-02-18T03:38:38.372Z,1.30
2023-02-18T03:42:34.133Z,1.50
2023-02-18T03:46:35.774Z,1.60
2023-02-18T03:50:34.075Z,1.20
2023-02-18T03:54:34.082Z,1.60
2023-02-18T03:58:33.944Z,1.30
2023-02-18T04:06:34.511Z,1.40
2023-02-18T04:10:33.996Z,1.60
2023-02-18T04:14:34.104Z,1.60
2023-02-18T04:18:34.177Z,2.00
2023-02-18T04:22:34.045Z,1.70
2023-02-18T04:26:34.078Z,1.60
2023-02-18T04:34:34.367Z,1.30
2023-02-18T04:38:34.201Z,1.40
2023-02-18T04:42:34.430Z,1.70
2023-02-18T04:46:35.153Z,1.40
2023-02-18T04:54:34.176Z,1.40
2023-02-18T05:10:34.382Z,1.70
2023-02-18T05:14:34.147Z,1.60
2023-02-18T05:22:34.232Z,1.60
2023-02-18T05:26:34.927Z,1.40
2023-02-18T05:30:34.525Z,1.70
2023-02-18T05:34:34.189Z,1.70
2023-02-18T05:38:34.306Z,1.40
2023-02-18T05:42:34.307Z,1.70
2023-02-18T05:46:34.435Z,1.70
2023-02-18T05:50:34.665Z,1.40
2023-02-18T05:54:35.803Z,1.30
2023-02-18T05:58:34.412Z,1.30
2023-02-18T06:02:34.692Z,1.50
2023-02-18T06:06:35.246Z,1.20
2023-02-18T06:10:34.418Z,1.30
2023-02-18T06:14:34.289Z,1.70
2023-02-18T06:18:34.536Z,1.70
2023-02-18T06:22:34.295Z,1.20
2023-02-18T06:26:34.756Z,1.30
2023-02-18T06:30:34.502Z,1.60
2023-02-18T06:34:34.437Z,1.30
2023-02-18T06:38:34.966Z,1.20
2023-02-18T06:46:34.514Z,1.40
2023-02-18T06:58:34.694Z,1.30
2023-02-18T07:02:34.552Z,1.30
2023-02-18T07:10:34.594Z,1.40
2023-02-18T07:18:34.597Z,1.70
2023-02-18T07:26:34.560Z,1.60
2023-02-18T07:50:36.118Z,1.40
2023-02-18T07:58:36.915Z,1.20
2023-02-18T08:02:34.574Z,1.10
2023-02-18T08:06:37.528Z,1.40
2023-02-18T08:10:34.682Z,1.40
2023-02-18T08:14:34.908Z,1.20
2023-02-18T08:18:34.598Z,1.30
2023-02-18T08:22:34.860Z,1.00
2023-02-18T08:26:34.708Z,1.40
2023-02-18T08:30:34.851Z,1.60
2023-02-18T08:34:34.730Z,1.20
2023-02-18T08:38:34.970Z,2.80
2023-02-18T08:42:34.720Z,2.40
2023-02-18T08:46:35.278Z,1.80
2023-02-18T08:50:35.715Z,1.70
2023-02-18T08:54:34.984Z,1.90
2023-02-18T08:58:36.259Z,1.00
2023-02-18T09:02:34.859Z,1.40
2023-02-18T09:06:36.485Z,1.50
2023-02-18T09:10:34.806Z,1.60
2023-02-18T09:14:34.796Z,1.50
2023-02-18T09:22:34.992Z,1.30
2023-02-18T09:26:36.007Z,1.30
2023-02-18T09:30:34.999Z,1.10
2023-02-18T09:34:35.460Z,1.30
2023-02-18T09:38:35.453Z,1.10
2023-02-18T09:42:34.981Z,1.50
2023-02-18T09:46:39.922Z,1.20
2023-02-18T09:50:35.030Z,1.50
2023-02-18T09:54:34.986Z,1.50
2023-02-18T09:58:35.068Z,1.10
2023-02-18T10:02:36.184Z,1.10
2023-02-18T10:06:35.417Z,1.20
2023-02-18T10:10:40.815Z,1.70
2023-02-18T10:14:35.247Z,1.40
2023-02-18T10:18:41.091Z,1.50
2023-02-18T10:22:37.278Z,1.40
2023-02-18T10:26:36.772Z,1.50
2023-02-18T10:30:39.711Z,1.40
2023-02-18T10:34:40.653Z,1.80
2023-02-18T10:38:47.882Z,1.20
2023-02-18T10:42:44.702Z,1.90
2023-02-18T10:46:43.975Z,1.60
2023-02-18T10:50:39.271Z,3.20
2023-02-18T10:54:49.338Z,1.70
2023-02-18T10:58:41.696Z,3.20
2023-02-18T11:06:39.410Z,2.00
2023-02-18T11:10:39.534Z,2.50
2023-02-18T11:15:24.082Z,2.00
2023-02-18T11:18:38.220Z,1.80
2023-02-18T11:22:38.786Z,1.60
2023-02-18T11:26:38.710Z,2.20
2023-02-18T11:30:38.114Z,1.40
2023-02-18T11:34:36.088Z,1.70
2023-02-18T11:38:40.900Z,4.00
2023-02-18T11:42:35.231Z,1.70
2023-02-18T11:46:35.386Z,1.30
2023-02-18T11:59:06.210Z,1.70
2023-02-18T12:03:13.857Z,1.50
2023-02-18T12:07:12.375Z,1.20
2023-02-18T12:15:05.109Z,1.30
2023-02-18T12:19:15.554Z,1.20
2023-02-18T12:23:14.561Z,1.30
2023-02-18T12:27:11.900Z,1.20
2023-02-18T12:31:16.022Z,1.30
2023-02-18T12:35:22.049Z,1.20
2023-02-18T12:39:11.467Z,1.70
2023-02-18T12:47:24.939Z,1.40
2023-02-18T12:55:24.527Z,1.30
2023-02-18T12:59:15.141Z,1.50
2023-02-18T13:03:16.917Z,1.30
2023-02-18T13:07:20.345Z,0.90
2023-02-18T13:11:14.582Z,1.00
2023-02-18T13:15:15.989Z,1.20
2023-02-18T13:19:16.156Z,1.40
2023-02-18T13:23:05.271Z,1.30
2023-02-18T13:27:14.125Z,1.50
2023-02-18T13:31:18.893Z,1.50
2023-02-18T13:35:18.092Z,1.30
2023-02-18T13:39:08.138Z,1.30
2023-02-18T13:43:18.425Z,1.50
2023-02-18T13:47:08.038Z,1.60
2023-02-18T13:51:06.288Z,1.40
2023-02-18T13:55:05.193Z,1.40
2023-02-18T14:03:24.702Z,1.20
2023-02-18T14:11:26.544Z,1.80
2023-02-18T14:15:24.730Z,1.50
2023-02-18T14:19:24.841Z,1.40
2023-02-18T14:23:11.003Z,1.40
2023-02-18T14:27:15.324Z,1.30
2023-02-18T14:31:28.958Z,1.20
2023-02-18T14:35:13.579Z,1.50
2023-02-18T14:39:18.533Z,1.60
2023-02-18T14:43:19.870Z,1.90
2023-02-18T14:47:18.794Z,1.70
2023-02-18T14:51:05.686Z,1.20
2023-02-18T14:55:12.130Z,1.80
2023-02-18T14:59:06.183Z,1.50
2023-02-18T15:03:13.420Z,1.50
2023-02-18T15:07:09.126Z,1.40
2023-02-18T15:11:06.848Z,1.30
2023-02-18T15:19:13.362Z,1.60
2023-02-18T15:23:05.562Z,1.30
2023-02-18T15:27:14.640Z,1.50
2023-02-18T15:31:13.191Z,1.20
2023-02-18T15:35:15.091Z,1.60
2023-02-18T15:39:05.295Z,1.00
2023-02-18T15:43:05.974Z,1.00
2023-02-18T15:47:08.824Z,1.30
2023-02-18T15:51:16.853Z,0.90
2023-02-18T15:55:11.339Z,1.40
2023-02-18T15:59:13.119Z,1.40
2023-02-18T16:03:12.528Z,1.50
2023-02-18T16:07:19.248Z,1.20
2023-02-18T16:11:08.066Z,1.30
2023-02-18T16:15:06.350Z,1.40
2023-02-18T16:19:05.305Z,1.90
2023-02-18T16:23:11.873Z,2.20
2023-02-18T16:27:08.627Z,1.70
2023-02-18T16:31:05.597Z,2.40
2023-02-18T16:35:05.828Z,2.20
2023-02-18T16:39:05.430Z,1.90
2023-02-18T16:43:10.010Z,3.60
2023-02-18T16:47:07.232Z,3.00
2023-02-18T16:51:08.744Z,2.10
2023-02-18T16:55:17.413Z,2.50
2023-02-18T16:59:05.917Z,2.20
2023-02-18T17:03:06.091Z,2.20
2023-02-18T17:07:08.570Z,2.20
2023-02-18T17:11:05.842Z,2.00
2023-02-18T17:15:12.171Z,2.00
2023-02-18T17:19:05.692Z,1.80
2023-02-18T17:39:12.007Z,2.20
2023-02-18T17:43:06.064Z,2.00
2023-02-18T17:47:05.730Z,2.20
2023-02-18T17:51:06.583Z,2.50
2023-02-18T17:55:15.257Z,2.40
2023-02-18T17:59:05.597Z,2.30
2023-02-18T18:03:06.257Z,2.10
2023-02-18T18:07:05.605Z,2.50
2023-02-18T18:11:09.297Z,2.40
2023-02-18T18:15:19.481Z,2.60
2023-02-18T18:19:05.904Z,3.00
2023-02-18T18:23:06.431Z,2.60
2023-02-18T18:27:05.793Z,2.90
2023-02-18T18:31:05.909Z,2.40
2023-02-18T18:35:18.808Z,3.00
2023-02-18T18:39:06.205Z,2.70
2023-02-18T18:43:05.724Z,2.80
2023-02-18T18:47:05.703Z,2.90
2023-02-18T18:51:06.074Z,2.80
2023-02-18T18:55:17.442Z,3.00
2023-02-18T18:59:07.618Z,2.80
2023-02-18T19:03:05.982Z,2.80
2023-02-18T19:11:05.963Z,2.70
2023-02-18T19:15:06.201Z,3.40
2023-02-18T19:19:05.935Z,2.50
2023-02-18T19:23:06.090Z,3.50
2023-02-18T19:27:05.918Z,3.00
2023-02-18T19:31:07.856Z,3.30
2023-02-18T19:35:06.344Z,4.40
2023-02-18T19:39:05.969Z,3.70
2023-02-18T19:43:07.314Z,3.40
2023-02-18T19:47:06.184Z,4.30
2023-02-18T19:51:07.836Z,3.80
2023-02-18T19:55:07.595Z,3.50
2023-02-18T19:59:06.167Z,3.20
2023-02-18T20:03:06.072Z,3.80
2023-02-18T20:07:06.468Z,3.70
2023-02-18T20:11:06.092Z,4.10
2023-02-18T20:15:07.179Z,3.50
2023-02-18T20:23:06.247Z,2.80
2023-02-18T20:27:06.862Z,3.30
2023-02-18T20:31:08.894Z,3.30
2023-02-18T20:35:06.818Z,3.30
2023-02-18T20:39:15.532Z,2.90
2023-02-18T20:43:06.148Z,3.60
2023-02-18T20:47:06.598Z,3.40
2023-02-18T20:51:08.239Z,2.80
2023-02-18T20:55:06.356Z,4.10
2023-02-18T20:59:06.132Z,3.60
2023-02-18T21:03:06.490Z,3.60
2023-02-18T21:11:09.013Z,3.20
2023-02-18T21:15:06.528Z,3.50
2023-02-18T21:19:10.108Z,3.70
2023-02-18T21:23:06.483Z,3.70
2023-02-18T21:27:06.378Z,3.10
2023-02-18T21:31:15.151Z,3.30
2023-02-18T21:39:08.077Z,3.70
2023-02-18T21:43:06.193Z,3.80
2023-02-18T21:47:06.415Z,4.00
2023-02-18T21:51:06.263Z,3.50
2023-02-18T22:03:06.420Z,4.60
2023-02-18T22:07:07.819Z,3.70
2023-02-18T22:11:06.343Z,3.90
2023-02-18T22:15:08.442Z,4.10
2023-02-18T22:19:07.156Z,3.50
2023-02-18T22:23:06.288Z,3.20
2023-02-18T22:27:06.471Z,3.90
2023-02-18T22:31:07.087Z,3.00
2023-02-18T22:35:06.958Z,3.50
2023-02-18T22:39:07.480Z,3.70
2023-02-18T22:43:06.413Z,4.50
2023-02-18T22:47:06.508Z,3.80
2023-02-18T22:51:09.102Z,3.90
2023-02-18T22:55:07.005Z,3.30
2023-02-18T22:59:06.449Z,3.80
2023-02-18T23:03:06.445Z,3.90
2023-02-18T23:07:06.587Z,4.30
2023-02-18T23:11:09.202Z,4.20
2023-02-18T23:15:07.034Z,3.50
2023-02-18T23:19:06.459Z,3.60
2023-02-18T23:23:06.452Z,3.60
2023-02-18T23:27:09.276Z,3.10
2023-02-18T23:31:06.694Z,3.40
2023-02-18T23:39:09.349Z,3.10
2023-02-18T23:47:07.479Z,3.20
2023-02-18T23:51:09.554Z,3.30
2023-02-18T23:59:06.760Z,3.20
